Berville, Michigan
Current Conditions -  °F | °C
As of 6:34 AM on Friday 24 Oct 2014 (Local Time) from KD95 Reporting Station
Clear Clear  
Wind Chill: 32°   Ceiling: Unl
Heat Index: 32°   Visibility: 7mi
Dew Point: 32°   Wind: 0mph
Humidity: 99%   Direction: NA
Pressure: 30.07"   Gusts: NA
Location:  42.9384°N, 82.9255°W
Report Text: KD95 241034Z AUTO 00000KT 7SM CLR 00/00 A3007 RMK AO2 T00010000
Loading
Personal Weather Stations






























Interactive Weather Map
Tropical Storm Tracking
New forecast layout! Learn more

10-Day Weather Forecast

Advertisements
Track Severe Weather on mobile